CheckWX is a tool to help pilots better visualize weather data.  It is not intended as a substitute for an official pre-flight weather briefing.

04:20:37 UTC

SCVD METAR
Pichoy Airport
Valdivia, Chile
Current

6 hours ago

SCVD 262200Z 26005KT 200V310 8000 -SHRA SCT011 BKN024 OVC040 11/11 Q1001
Observed
Jun-26 @ 22:00 UTC
Wind
  • 260° at 5 KTS
Visibility
8,000 meters
Flight Rules
MVFR
Conditions
Light Rain
Cloud Levels
  • Scattered at 1,100' AGL
  • Broken at 2,400' AGL
  • Overcast at 4,000' AGL
Temperature
11°C / 52°F
Dewpoint
11°C / 52°F
Humidity
100%
Altimeter
29.56" Hg
Pressure
1000.92 hPa
Previous

7 hours ago

SCVD 262100Z 28012KT 230V320 8000 -RA SCT011 BKN018 OVC033 13/ 12 Q1001
Observed
Jun-26 @ 21:00 UTC
Wind
  • 280° at 12 KTS
Visibility
8,000 meters
Flight Rules
MVFR
Conditions
Light Rain
Cloud Levels
  • Scattered at 1,100' AGL
  • Broken at 1,800' AGL
  • Overcast at 3,300' AGL
Temperature
13°C / 55°F
Altimeter
29.56" Hg
Pressure
1000.92 hPa
Previous

8 hours ago

SCVD 262000Z 29012G22KT 260V320 2800 -RA BKN011 OVC019 13/12 Q1001
Observed
Jun-26 @ 20:00 UTC
Wind
  • 290° at 12 KTS
  • Gusting to 22 KTS
Visibility
2,800 meters
Flight Rules
IFR
Conditions
Light Rain
Cloud Levels
  • Broken at 1,100' AGL
  • Overcast at 1,900' AGL
Temperature
13°C / 55°F
Dewpoint
12°C / 54°F
Humidity
94%
Altimeter
29.56" Hg
Pressure
1000.92 hPa